• Join FlightAware (Why Join?)
  • Login
  • US Flag 
09:22AM EDT


 

Airport Tracker/Info


-or-


 

Live Flight TrackerFlight Track Log ✈ CCA4122 ✈ 02-Oct-2013 ✈ ZBAA / PEK - ZUJZ / JZH

Flight Track Log - Related Links

Times and Time Zones

All times are in EDT time to prevent confusion due to time zone crossing. See the CCA4122 flight status page for this flight to view local times or setup timezone preferences in your user account.

Time Position Orientation Groundspeed Altitude Reporting Facility
EDT Latitude Longitude Course Direction KTS MPH feet Rate Location/Type
03:39AM 39.8690 116.1262 239° Southwest  Level Estimated
03:40AM 39.8266 116.0349 239° Southwest  Level Estimated
03:41AM 39.7840 115.9437 239° Southwest  Level Estimated
03:42AM 39.7415 115.8526 239° Southwest  Level Estimated
03:43AM 39.6988 115.7616 239° Southwest  Level Estimated
03:44AM 39.6561 115.6707 239° Southwest  Level Estimated
03:45AM 39.6133 115.5800 239° Southwest  Level Estimated
03:46AM 39.5704 115.4893 238° Southwest  Level Estimated
03:47AM 39.5275 115.3988 238° Southwest  Level Estimated
03:48AM 39.4845 115.3083 238° Southwest  Level Estimated
03:49AM 39.4414 115.2180 238° Southwest  Level Estimated
03:50AM 39.3983 115.1278 238° Southwest  Level Estimated
03:51AM 39.3551 115.0378 238° Southwest  Level Estimated
03:52AM 39.3118 114.9478 238° Southwest  Level Estimated
03:53AM 39.2685 114.8579 238° Southwest  Level Estimated
03:54AM 39.2251 114.7681 238° Southwest  Level Estimated
03:55AM 39.1816 114.6785 238° Southwest  Level Estimated
03:56AM 39.1380 114.5890 238° Southwest  Level Estimated
03:57AM 39.0944 114.4995 238° Southwest  Level Estimated
03:58AM 39.0507 114.4102 238° Southwest  Level Estimated
03:59AM 39.0069 114.3210 238° Southwest  Level Estimated
04:00AM 38.9631 114.2319 238° Southwest  Level Estimated
04:01AM 38.9192 114.1430 238° Southwest  Level Estimated
04:02AM 38.8752 114.0541 238° Southwest  Level Estimated
04:03AM 38.8312 113.9653 238° Southwest  Level Estimated
04:04AM 38.7871 113.8767 237° Southwest  Level Estimated
04:05AM 38.7429 113.7881 237° Southwest  Level Estimated
04:06AM 38.6987 113.6997 237° Southwest  Level Estimated
04:07AM 38.6544 113.6114 237° Southwest  Level Estimated
04:08AM 38.6100 113.5232 237° Southwest  Level Estimated
04:09AM 38.5656 113.4351 237° Southwest  Level Estimated
04:10AM 38.5211 113.3471 237° Southwest  Level Estimated
04:11AM 38.4765 113.2592 237° Southwest  Level Estimated
04:12AM 38.4319 113.1714 237° Southwest  Level Estimated
04:13AM 38.3872 113.0837 237° Southwest  Level Estimated
04:14AM 38.3424 112.9962 237° Southwest  Level Estimated
04:15AM 38.2976 112.9087 237° Southwest  Level Estimated
04:16AM 38.2527 112.8214 237° Southwest  Level Estimated
04:17AM 38.2077 112.7341 237° Southwest  Level Estimated
04:18AM 38.1627 112.6470 237° Southwest  Level Estimated
04:19AM 38.1176 112.5600 237° Southwest  Level Estimated
04:20AM 38.0725 112.4731 237° Southwest  Level Estimated
04:21AM 38.0273 112.3863 237° Southwest  Level Estimated
04:22AM 37.9820 112.2996 236° Southwest  Level Estimated
04:23AM 37.9367 112.2130 236° Southwest  Level Estimated
04:24AM 37.8913 112.1265 236° Southwest  Level Estimated
04:25AM 37.8458 112.0401 236° Southwest  Level Estimated
04:26AM 37.8003 111.9538 236° Southwest  Level Estimated
04:27AM 37.7547 111.8677 236° Southwest  Level Estimated
04:28AM 37.7090 111.7816 236° Southwest  Level Estimated
04:29AM 37.6633 111.6956 236° Southwest  Level Estimated
04:30AM 37.6175 111.6098 236° Southwest  Level Estimated
04:31AM 37.5717 111.5241 236° Southwest  Level Estimated
04:32AM 37.5258 111.4384 236° Southwest  Level Estimated
04:33AM 37.4798 111.3529 236° Southwest  Level Estimated
04:34AM 37.4338 111.2675 236° Southwest  Level Estimated
04:35AM 37.3877 111.1821 236° Southwest  Level Estimated
04:36AM 37.3415 111.0969 236° Southwest  Level Estimated
04:37AM 37.2953 111.0118 236° Southwest  Level Estimated
04:38AM 37.2491 110.9268 236° Southwest  Level Estimated
04:39AM 37.2027 110.8419 236° Southwest  Level Estimated
04:40AM 37.1563 110.7571 236° Southwest  Level Estimated
04:41AM 37.1099 110.6724 235° Southwest  Level Estimated
04:42AM 37.0634 110.5878 235° Southwest  Level Estimated
04:43AM 37.0168 110.5033 235° Southwest  Level Estimated
04:44AM 36.9702 110.4190 235° Southwest  Level Estimated
04:45AM 36.9235 110.3347 235° Southwest  Level Estimated
04:46AM 36.8767 110.2505 235° Southwest  Level Estimated
04:47AM 36.8299 110.1664 235° Southwest  Level Estimated
04:48AM 36.7831 110.0825 235° Southwest  Level Estimated
04:49AM 36.7361 109.9986 235° Southwest  Level Estimated
04:50AM 36.6891 109.9148 235° Southwest  Level Estimated
04:51AM 36.6421 109.8311 235° Southwest  Level Estimated
04:52AM 36.5950 109.7476 235° Southwest  Level Estimated
04:53AM 36.5478 109.6641 235° Southwest  Level Estimated
04:54AM 36.5006 109.5808 235° Southwest  Level Estimated
04:55AM 36.4533 109.4975 235° Southwest  Level Estimated
04:56AM 36.4060 109.4144 235° Southwest  Level Estimated
04:57AM 36.3586 109.3313 235° Southwest  Level Estimated
04:58AM 36.3111 109.2484 235° Southwest  Level Estimated
04:59AM 36.2636 109.1655 235° Southwest  Level Estimated
05:00AM 36.2160 109.0828 235° Southwest  Level Estimated
05:01AM 36.1684 109.0001 234° Southwest  Level Estimated
05:02AM 36.1207 108.9176 234° Southwest  Level Estimated
05:03AM 36.0730 108.8351 234° Southwest  Level Estimated
05:04AM 36.0252 108.7528 234° Southwest  Level Estimated
05:05AM 35.9774 108.6705 234° Southwest  Level Estimated
05:06AM 35.9295 108.5884 234° Southwest  Level Estimated
05:07AM 35.8815 108.5063 234° Southwest  Level Estimated
05:08AM 35.8335 108.4244 234° Southwest  Level Estimated
05:09AM 35.7854 108.3425 234° Southwest  Level Estimated
05:10AM 35.7373 108.2608 234° Southwest  Level Estimated
05:11AM 35.6891 108.1791 234° Southwest  Level Estimated
05:12AM 35.6409 108.0976 234° Southwest  Level Estimated
05:13AM 35.5926 108.0161 234° Southwest  Level Estimated
05:14AM 35.5442 107.9347 234° Southwest  Level Estimated
05:15AM 35.4958 107.8535 234° Southwest  Level Estimated
05:16AM 35.4473 107.7723 234° Southwest  Level Estimated
05:17AM 35.3988 107.6913 234° Southwest  Level Estimated
05:18AM 35.3503 107.6103 234° Southwest  Level Estimated
05:19AM 35.3017 107.5294 234° Southwest  Level Estimated
05:20AM 35.2530 107.4486 234° Southwest  Level Estimated
05:21AM 35.2043 107.3680 234° Southwest  Level Estimated
05:22AM 35.1555 107.2874 233° Southwest  Level Estimated
05:23AM 35.1066 107.2069 233° Southwest  Level Estimated
05:24AM 35.0578 107.1265 233° Southwest  Level Estimated
05:25AM 35.0088 107.0462 233° Southwest  Level Estimated
05:26AM 34.9598 106.9661 233° Southwest  Level Estimated
05:27AM 34.9108 106.8860 233° Southwest  Level Estimated
05:28AM 34.8617 106.8060 233° Southwest  Level Estimated
05:29AM 34.8125 106.7261 233° Southwest  Level Estimated
05:30AM 34.7633 106.6462 233° Southwest  Level Estimated
05:31AM 34.7141 106.5665 233° Southwest  Level Estimated
05:32AM 34.6648 106.4869 233° Southwest  Level Estimated
05:33AM 34.6154 106.4074 233° Southwest  Level Estimated
05:34AM 34.5660 106.3279 233° Southwest  Level Estimated
05:35AM 34.5165 106.2486 233° Southwest  Level Estimated
05:36AM 34.4670 106.1694 233° Southwest  Level Estimated
05:37AM 34.4175 106.0902 233° Southwest  Level Estimated
05:38AM 34.3679 106.0112 233° Southwest  Level Estimated
05:39AM 34.3182 105.9322 233° Southwest  Level Estimated
05:39AM 32.4070 104.4980 233° Southwest 402 463 23,600  Level FlightAware
05:40AM 34.2685 105.8533 233° Southwest  Level Estimated
05:40AM 32.4080 104.4140 271° West 403 464 23,600  Level FlightAware
05:40AM 32.4090 104.3420 271° West 400 460 23,600  Level FlightAware
05:41AM 32.4140 104.2690 275° West 378 435 23,600  Level FlightAware
05:41AM 32.4320 104.2110 290° West 374 430 23,600  Level FlightAware
05:42AM 32.4550 104.1680 302° West 378 435 23,600  Level FlightAware
05:42AM 32.4950 104.1030 306° West 378 435 23,600  Level FlightAware
05:43AM 32.5270 104.0520 307° West 378 435 23,600  Level FlightAware
05:44AM 32.5580 104.0000 305° West 378 435 23,600  Level FlightAware
05:44AM 32.5900 103.9490 307° West 378 435 23,600  Level FlightAware
05:45AM 32.6300 103.8830 306° West 378 435 23,600  Level FlightAware
05:45AM 32.6620 103.8300 306° West 378 435 23,600  Level FlightAware
05:48AM 32.8016 103.7248 328° Northwest  Level Estimated
05:49AM 32.8570 103.6830 328° Northwest  Level Estimated
05:50AM 32.8570 103.6830 North  Level Estimated
05:51AM 32.8570 103.6830 North  Level Estimated
05:52AM 32.8570 103.6830 North  Level Estimated
05:53AM 32.8570 103.6830 North  Level Estimated
05:54AM 32.8570 103.6830 North  Level Estimated
05:55AM 32.8570 103.6830 North  Level Estimated
05:56AM 32.8570 103.6830 North  Level Estimated
05:57AM 32.8570 103.6830 North  Level Estimated
05:58AM 32.8570 103.6830 North  Level Estimated
05:59AM 32.8570 103.6830 North  Level Estimated
06:00AM 32.8570 103.6830 North  Level Estimated
06:01AM 32.8570 103.6830 North  Level Estimated
06:02AM 32.8570 103.6830 North  Level Estimated